createdAt,value
2022-09-22T00:09:33.929Z,5
2022-09-22T00:19:39.097Z,6
2022-09-22T00:29:46.137Z,5
2022-09-22T00:39:51.946Z,7
2022-09-22T00:49:57.981Z,8
2022-09-22T01:00:03.444Z,6
2022-09-22T01:10:11.306Z,7
2022-09-22T01:20:17.711Z,6
2022-09-22T01:30:22.805Z,6
2022-09-22T01:40:28.367Z,6
2022-09-22T01:50:32.861Z,7
2022-09-22T02:00:39.892Z,6
2022-09-22T02:10:46.325Z,6
2022-09-22T02:20:53.198Z,6
2022-09-22T02:31:20.855Z,5
2022-09-22T02:41:15.205Z,4
2022-09-22T02:51:20.602Z,5
2022-09-22T03:01:27.174Z,7
2022-09-22T03:11:34.242Z,5
2022-09-22T03:21:40.216Z,5
2022-09-22T03:31:46.281Z,5
2022-09-22T03:41:50.654Z,7
2022-09-22T03:51:56.343Z,8
2022-09-22T04:02:03.509Z,6
2022-09-22T04:12:07.903Z,7
2022-09-22T04:22:12.976Z,7
2022-09-22T04:32:17.261Z,8
2022-09-22T04:42:22.861Z,7
2022-09-22T04:52:30.091Z,6
2022-09-22T05:02:36.639Z,6
2022-09-22T05:12:41.080Z,5
2022-09-22T05:22:47.527Z,6
2022-09-22T05:32:53.583Z,6
2022-09-22T05:42:58.670Z,5
2022-09-22T05:53:05.462Z,6
2022-09-22T06:03:13.815Z,6
2022-09-22T06:13:17.307Z,5
2022-09-22T06:23:24.167Z,7
2022-09-22T06:33:30.243Z,7
2022-09-22T06:43:34.702Z,6
2022-09-22T06:53:40.072Z,6
2022-09-22T07:03:44.984Z,4
2022-09-22T07:13:50.700Z,9
2022-09-22T07:23:55.600Z,5
2022-09-22T07:34:01.786Z,7
2022-09-22T07:44:08.524Z,8
2022-09-22T07:54:11.963Z,6
2022-09-22T08:04:17.966Z,5
2022-09-22T08:14:22.025Z,5
2022-09-22T08:24:28.469Z,6
2022-09-22T08:34:33.452Z,11
2022-09-22T08:44:39.218Z,8
2022-09-22T08:54:50.802Z,8
2022-09-22T09:04:50.814Z,7
2022-09-22T09:14:56.618Z,5
2022-09-22T09:26:16.074Z,6
2022-09-22T09:36:27.486Z,5
2022-09-22T09:46:28.393Z,5
2022-09-22T09:56:34.235Z,5
2022-09-22T10:06:40.072Z,7
2022-09-22T10:16:46.726Z,5
2022-09-22T10:26:51.909Z,6
2022-09-22T10:36:59.818Z,9
2022-09-22T10:47:05.962Z,5
2022-09-22T10:57:12.275Z,7
2022-09-22T11:07:18.042Z,6
2022-09-22T11:17:22.985Z,4
2022-09-22T11:27:30.055Z,7
2022-09-22T11:37:38.745Z,7
2022-09-22T11:47:43.582Z,6
2022-09-22T11:57:49.178Z,6
2022-09-22T12:07:55.750Z,4
2022-09-22T12:18:07.756Z,4
2022-09-22T12:28:09.749Z,3
2022-09-22T12:38:15.495Z,5
2022-09-22T12:48:20.007Z,6
2022-09-22T12:58:28.039Z,4
2022-09-22T13:08:33.367Z,4
2022-09-22T13:18:39.194Z,4
2022-09-22T13:28:43.393Z,8
2022-09-22T13:38:48.037Z,4
2022-09-22T13:48:55.581Z,3
2022-09-22T13:58:58.025Z,5
2022-09-22T14:09:08.242Z,4
2022-09-22T14:19:11.571Z,4
2022-09-22T14:29:16.401Z,5
2022-09-22T14:39:46.917Z,4
2022-09-22T14:49:40.415Z,5
2022-09-22T14:59:46.276Z,7
2022-09-22T15:09:52.795Z,5
2022-09-22T15:19:59.162Z,4
2022-09-22T15:30:04.871Z,5
2022-09-22T15:40:10.188Z,5
2022-09-22T15:50:17.238Z,6
2022-09-22T16:00:22.426Z,4
2022-09-22T16:10:28.247Z,7
2022-09-22T16:20:33.968Z,5
2022-09-22T16:30:38.511Z,8
2022-09-22T16:40:46.211Z,10
2022-09-22T16:50:51.494Z,5
2022-09-22T17:00:58.043Z,5
2022-09-22T17:11:02.504Z,11
2022-09-22T17:21:08.435Z,8
2022-09-22T17:31:13.489Z,5
2022-09-22T17:41:21.037Z,5
2022-09-22T17:51:25.707Z,6
2022-09-22T18:01:34.040Z,7
2022-09-22T18:11:38.188Z,10
2022-09-22T18:21:45.133Z,8
2022-09-22T18:31:52.080Z,11
2022-09-22T18:42:01.866Z,10
2022-09-22T18:52:01.200Z,12
2022-09-22T19:02:12.457Z,17
2022-09-22T19:12:13.432Z,17
2022-09-22T19:22:18.427Z,10
2022-09-22T19:32:23.338Z,7
2022-09-22T19:42:28.986Z,7
2022-09-22T20:02:41.093Z,8
2022-09-22T20:12:44.375Z,10
2022-09-22T20:22:52.195Z,7
2022-09-22T20:32:57.209Z,8
2022-09-22T20:43:02.381Z,9
2022-09-22T20:53:08.400Z,8
2022-09-22T21:03:14.571Z,16
2022-09-22T21:13:20.184Z,100
2022-09-22T21:23:26.449Z,174
2022-09-22T21:33:32.829Z,102
2022-09-22T21:43:37.749Z,33
2022-09-22T21:53:43.157Z,5
2022-09-22T22:03:49.611Z,6
2022-09-22T22:13:53.739Z,6
2022-09-22T22:24:01.810Z,7
2022-09-22T22:34:05.217Z,6
2022-09-22T22:44:09.910Z,7
2022-09-22T22:54:15.387Z,5
2022-09-22T23:04:21.049Z,7
2022-09-22T23:14:25.422Z,6
2022-09-22T23:24:32.746Z,5
2022-09-22T23:34:36.646Z,7
2022-09-22T23:44:42.013Z,6
2022-09-22T23:54:48.654Z,7
